• Join FlightAware (Why Join?)
  • Login
  • US Flag 
12:01PM EDT


 

Airport Tracker/Info


-or-


 

Live Flight TrackerFlight Track Log ✈ UCA4838 ✈ 15-Aug-2013 ✈ KROC - KEWR

Flight Track Log - Related Links

Times and Time Zones

All times are in EDT time to prevent confusion due to time zone crossing. See the UCA4838 flight status page for this flight to view local times or setup timezone preferences in your user account.

Time Position Orientation Groundspeed Altitude Reporting Facility
EDT Latitude Longitude Course Direction KTS MPH feet Rate Location/Type
06:05AM 43.1014 -77.6886 124° Southeast 135 155 1,200  Level Cleveland Center
06:07AM 43.0647 -77.6447 139° Southeast 179 206 3,100 1,500 Climbing Cleveland Center
06:08AM 43.0425 -77.5833 116° Southeast 172 198 4,800 1,500 Climbing Cleveland Center
06:09AM 43.0200 -77.5247 118° Southeast 172 198 6,400 1,500 Climbing Cleveland Center
06:10AM 42.9975 -77.4606 116° Southeast 178 205 7,900 1,500 Climbing Cleveland Center
06:11AM 42.8812 -77.1289 124° Southeast  Level FlightAware Approximate
06:11AM 42.9728 -77.3994 119° Southeast 178 205 9,400  Level Cleveland Center
06:12AM 42.9503 -77.3325 115° Southeast 185 213 10,000 300 Climbing Cleveland Center
06:13AM 42.9186 -77.2489 117° Southeast 211 243 10,000  Level Cleveland Center
06:14AM 42.8828 -77.1603 119° Southeast 246 283 10,000 480 Level Cleveland Center
06:16AM 42.8169 -76.9736 116° Southeast 274 315 11,600 780 Climbing New York Center
06:17AM 42.7836 -76.8939 120° Southeast 253 291 12,500 660 Climbing New York Center
06:18AM 42.7481 -76.8144 121° Southeast 248 285 13,000 300 Climbing New York Center
06:18AM 42.7242 -76.7733 128° Southeast 246 283 13,000  Level Boston Center
06:19AM 42.6839 -76.6831 121° Southeast 252 290 13,000  Level Boston Center
06:20AM 42.6436 -76.5869 120° Southeast 276 318 13,000  Level Boston Center
06:21AM 42.5992 -76.4908 122° Southeast 290 334 13,000  Level Boston Center
06:22AM 42.5567 -76.3950 121° Southeast 290 334 13,000  Level Boston Center
06:23AM 42.5161 -76.3022 121° Southeast 290 334 13,000  Level Boston Center
06:24AM 42.4736 -76.2039 120° Southeast 290 334 13,000  Level Boston Center
06:25AM 42.4306 -76.1142 123° Southeast 290 334 13,000  Level Boston Center
06:26AM 42.3858 -76.0158 122° Southeast 302 348 13,000  Level Boston Center
06:27AM 42.3408 -75.9150 121° Southeast 295 339 13,000  Level Boston Center
06:28AM 42.2978 -75.8283 124° Southeast 295 339 13,000  Level Boston Center
06:29AM 42.2569 -75.7250 118° Southeast 295 339 13,000  Level Boston Center
06:30AM 42.2117 -75.6275 122° Southeast 307 353 13,000  Level Boston Center
06:31AM 42.1664 -75.5356 124° Southeast 307 353 13,000  Level Boston Center
06:32AM 42.1211 -75.4381 122° Southeast 307 353 13,000  Level Boston Center
06:33AM 42.0756 -75.3464 124° Southeast 307 353 13,000  Level Boston Center
06:34AM 42.0364 -75.2467 118° Southeast 307 353 13,000  Level Boston Center
06:35AM 41.9992 -75.1472 117° Southeast 301 346 13,000  Level Boston Center
06:36AM 41.9597 -75.0450 117° Southeast 301 346 13,000  Level Boston Center
06:37AM 41.9264 -74.9544 116° Southeast 301 346 13,000 -600 Level Boston Center
06:38AM 41.8594 -74.8792 140° Southeast 285 328 11,800 -1,380 Descending Boston Center
06:39AM 41.7872 -74.8347 155° Southeast 304 350 10,300 -1,620 Descending Boston Center
06:40AM 41.7072 -74.7842 155° Southeast 299 344 8,600 -1,560 Descending Boston Center
06:41AM 41.6433 -74.7431 154° Southeast 294 338 7,300 -840 Descending Boston Center
06:42AM 41.5672 -74.6903 153° Southeast 284 327 7,000 -480 Descending Boston Center
06:43AM 41.5056 -74.6522 155° Southeast 279 321 6,400 -540 Descending Boston Center
06:44AM 41.4333 -74.6000 152° Southeast 272 313 6,000 -240 Descending New York TRACON
06:45AM 41.3667 -74.6167 191° South 264 304 6,000  Level New York TRACON
06:46AM 41.3167 -74.6333 194° South 255 293 6,000  Level New York TRACON
06:47AM 41.2500 -74.6000 159° South 254 292 6,000  Level New York TRACON
06:48AM 41.2000 -74.5333 135° Southeast 253 291 6,000  Level New York TRACON
06:49AM 41.1333 -74.5500 191° South 253 291 6,000  Level New York TRACON
06:50AM 41.0667 -74.5833 201° Southwest 251 289 6,000  Level New York TRACON
06:51AM 41.0000 -74.6000 191° South 247 284 6,000  Level New York TRACON
06:52AM 40.9500 -74.6333 207° Southwest 247 284 6,000  Level New York TRACON
06:53AM 40.8833 -74.6333 180° South 249 287 6,000  Level New York TRACON
06:54AM 40.8167 -74.6167 169° South 247 284 6,000  Level New York TRACON
06:55AM 40.7500 -74.5833 159° South 251 289 6,000 -240 Level New York TRACON
06:56AM 40.6833 -74.5333 150° Southeast 260 299 5,600 -540 Descending New York TRACON
06:57AM 40.6333 -74.5000 153° Southeast 270 311 5,000 -660 Descending New York TRACON
06:58AM 40.5833 -74.4167 128° Southeast 262 302 4,400 -660 Descending New York TRACON
06:59AM 40.5500 -74.3500 123° Southeast 254 292 3,700 -780 Descending New York TRACON
07:00AM 40.5333 -74.2667 105° East 209 241 2,900 -660 Descending New York TRACON
07:01AM 40.5667 -74.2500 21° North 176 203 2,400 -660 Descending New York TRACON
07:02AM 40.6167 -74.2167 27° Northeast 174 200 1,600 -900 Descending New York TRACON
07:03AM 40.6500 -74.1833 37° Northeast 145 167 700 -900 Descending New York TRACON
07:05AM 40.6833 -74.1667 23° Northeast  Level FlightAware Approximate